createdAt,value
2022-10-25T00:00:45.126Z,2.63
2022-10-25T00:03:14.400Z,2.60
2022-10-25T00:05:42.736Z,3.00
2022-10-25T00:08:10.754Z,2.80
2022-10-25T00:10:39.095Z,2.93
2022-10-25T00:13:07.558Z,3.00
2022-10-25T00:15:35.722Z,2.90
2022-10-25T00:18:03.620Z,2.70
2022-10-25T00:20:32.964Z,2.57
2022-10-25T00:23:00.880Z,2.67
2022-10-25T00:25:28.724Z,2.87
2022-10-25T00:27:56.632Z,2.97
2022-10-25T00:30:24.536Z,2.70
2022-10-25T00:32:52.793Z,2.90
2022-10-25T00:35:20.728Z,2.67
2022-10-25T00:37:50.192Z,2.90
2022-10-25T00:40:19.231Z,2.73
2022-10-25T00:42:47.366Z,3.20
2022-10-25T00:45:22.664Z,3.20
2022-10-25T00:47:55.819Z,2.90
2022-10-25T00:50:31.297Z,3.10
2022-10-25T00:53:07.023Z,3.23
2022-10-25T00:55:36.858Z,3.47
2022-10-25T00:58:09.005Z,3.43
2022-10-25T01:00:37.409Z,3.47
2022-10-25T01:03:06.900Z,3.70
2022-10-25T01:05:35.578Z,4.07
2022-10-25T01:08:06.256Z,4.00
2022-10-25T01:10:34.261Z,3.70
2022-10-25T01:13:03.694Z,3.60
2022-10-25T01:15:36.631Z,4.07
2022-10-25T01:18:12.101Z,4.03
2022-10-25T01:21:09.982Z,4.10
2022-10-25T01:24:03.999Z,4.43
2022-10-25T01:26:54.802Z,4.00
2022-10-25T01:29:45.420Z,3.90
2022-10-25T01:32:19.584Z,4.90
2022-10-25T01:34:53.928Z,4.93
2022-10-25T01:37:28.420Z,4.47
2022-10-25T01:40:03.539Z,4.23
2022-10-25T01:42:36.716Z,4.20
2022-10-25T01:45:11.513Z,4.17
2022-10-25T01:47:45.032Z,4.60
2022-10-25T01:50:15.741Z,4.53
2022-10-25T01:52:43.894Z,4.73
2022-10-25T01:55:14.950Z,4.40
2022-10-25T01:58:02.996Z,4.60
2022-10-25T02:00:34.470Z,4.20
2022-10-25T02:03:15.821Z,4.63
2022-10-25T02:05:56.759Z,4.33
2022-10-25T02:08:32.053Z,4.90
2022-10-25T02:11:07.275Z,4.57
2022-10-25T02:13:45.077Z,4.00
2022-10-25T02:16:18.026Z,4.20
2022-10-25T02:18:50.956Z,4.27
2022-10-25T02:21:19.698Z,4.50
2022-10-25T02:23:50.026Z,4.30
2022-10-25T02:26:19.443Z,4.20
2022-10-25T02:28:48.521Z,4.07
2022-10-25T02:31:18.743Z,4.70
2022-10-25T02:33:49.015Z,4.40
2022-10-25T02:36:21.079Z,4.50
2022-10-25T02:38:50.868Z,3.80
2022-10-25T02:41:19.848Z,4.33
2022-10-25T02:43:47.889Z,4.53
2022-10-25T02:46:17.116Z,3.87
2022-10-25T02:48:49.096Z,4.23
2022-10-25T02:51:17.579Z,4.57
2022-10-25T02:53:47.324Z,4.80
2022-10-25T02:56:17.622Z,4.60
2022-10-25T02:58:47.305Z,4.77
2022-10-25T03:01:16.681Z,4.87
2022-10-25T03:03:45.905Z,4.70
2022-10-25T03:06:15.728Z,4.87
2022-10-25T03:08:46.181Z,5.00
2022-10-25T03:11:15.635Z,5.50
2022-10-25T03:13:43.716Z,5.00
2022-10-25T03:16:11.742Z,5.37
2022-10-25T03:18:39.806Z,5.30
2022-10-25T03:21:08.351Z,5.77
2022-10-25T03:23:38.079Z,6.23
2022-10-25T03:26:06.262Z,6.93
2022-10-25T03:28:34.224Z,6.83
2022-10-25T03:31:02.371Z,7.10
2022-10-25T03:35:59.159Z,8.50
2022-10-25T03:38:27.193Z,8.30
2022-10-25T03:40:56.567Z,8.70
2022-10-25T03:43:24.535Z,8.53
2022-10-25T03:45:52.390Z,8.40
2022-10-25T03:48:20.366Z,8.97
2022-10-25T03:50:48.245Z,8.97
2022-10-25T03:53:16.301Z,8.80
2022-10-25T03:55:44.172Z,9.30
2022-10-25T03:58:13.528Z,9.43
2022-10-25T04:00:41.582Z,8.87
2022-10-25T04:03:10.649Z,9.07
2022-10-25T04:05:38.585Z,8.50
2022-10-25T04:08:06.879Z,8.50
2022-10-25T04:10:35.116Z,8.10
2022-10-25T04:13:03.211Z,8.13
2022-10-25T04:15:32.683Z,7.80
2022-10-25T04:18:00.618Z,7.03
2022-10-25T04:20:28.556Z,7.20
2022-10-25T04:22:57.170Z,7.43
2022-10-25T04:25:26.051Z,7.60
2022-10-25T04:27:54.084Z,7.17
2022-10-25T04:30:22.099Z,6.90
2022-10-25T04:32:51.935Z,7.53
2022-10-25T04:35:20.111Z,7.40
2022-10-25T04:37:48.019Z,7.37
2022-10-25T04:40:17.473Z,7.13
2022-10-25T04:42:47.206Z,6.97
2022-10-25T04:45:15.365Z,7.40
2022-10-25T04:47:43.319Z,7.00
2022-10-25T04:50:12.919Z,6.77
2022-10-25T04:52:40.863Z,7.13
2022-10-25T04:55:09.389Z,6.80
2022-10-25T04:57:37.307Z,6.73
2022-10-25T05:00:06.318Z,7.00
2022-10-25T05:02:34.377Z,7.20
2022-10-25T05:05:02.294Z,6.80
2022-10-25T05:07:31.761Z,7.20
2022-10-25T05:09:59.622Z,7.33
2022-10-25T05:12:27.549Z,7.60
2022-10-25T05:14:55.569Z,7.57
2022-10-25T05:17:23.526Z,7.53
2022-10-25T05:19:51.379Z,8.07
2022-10-25T05:22:19.451Z,7.57
2022-10-25T05:24:48.804Z,8.67
2022-10-25T05:27:17.074Z,8.30
2022-10-25T05:29:45.852Z,8.23
2022-10-25T05:32:13.767Z,8.40
2022-10-25T05:34:41.632Z,9.00
2022-10-25T05:37:09.556Z,8.17
2022-10-25T05:39:37.420Z,8.83
2022-10-25T05:42:06.827Z,9.63
2022-10-25T05:44:34.733Z,9.50
2022-10-25T05:47:02.887Z,9.20
2022-10-25T05:49:30.737Z,9.50
2022-10-25T05:51:58.920Z,8.90
2022-10-25T05:54:26.883Z,9.30
2022-10-25T05:56:54.811Z,8.90
2022-10-25T05:59:24.031Z,9.53
2022-10-25T06:01:52.041Z,9.20
2022-10-25T06:04:20.047Z,9.13
2022-10-25T06:06:48.555Z,10.10
2022-10-25T06:09:16.450Z,10.03
2022-10-25T06:11:44.369Z,9.87
2022-10-25T06:14:12.542Z,10.93
2022-10-25T06:16:41.881Z,11.57
2022-10-25T06:19:10.523Z,11.60
2022-10-25T06:21:38.456Z,10.50
2022-10-25T06:24:07.312Z,9.27
2022-10-25T06:26:35.174Z,8.83
2022-10-25T06:29:05.758Z,8.90
2022-10-25T06:31:34.522Z,9.10
2022-10-25T06:34:04.023Z,10.20
2022-10-25T06:36:32.686Z,10.60
2022-10-25T06:39:05.554Z,9.80
2022-10-25T06:41:33.964Z,8.73
2022-10-25T06:44:06.397Z,8.43
2022-10-25T06:46:57.899Z,9.10
2022-10-25T06:49:26.160Z,8.33
2022-10-25T06:51:54.066Z,9.17
2022-10-25T06:54:21.978Z,8.53
2022-10-25T06:56:49.880Z,9.00
2022-10-25T06:59:17.982Z,8.97
2022-10-25T07:01:45.971Z,9.40
2022-10-25T07:04:14.007Z,9.60
2022-10-25T07:06:43.290Z,10.50
2022-10-25T07:09:12.406Z,9.60
2022-10-25T07:11:40.989Z,9.00
2022-10-25T07:14:11.732Z,9.80
2022-10-25T07:16:39.662Z,10.07
2022-10-25T07:19:07.878Z,10.27
2022-10-25T07:21:35.818Z,10.17
2022-10-25T07:24:05.421Z,10.20
2022-10-25T07:26:36.388Z,10.20
2022-10-25T07:29:05.793Z,10.80
2022-10-25T07:31:35.678Z,10.17
2022-10-25T07:34:05.436Z,10.50
2022-10-25T07:36:33.692Z,10.93
2022-10-25T07:39:01.573Z,10.57
2022-10-25T07:41:30.881Z,11.03
2022-10-25T07:43:59.003Z,11.97
2022-10-25T07:46:26.980Z,11.00
2022-10-25T07:48:54.839Z,11.87
2022-10-25T07:51:22.987Z,11.60
2022-10-25T07:53:50.931Z,11.90
2022-10-25T07:56:23.442Z,12.00
2022-10-25T07:58:53.483Z,11.80
2022-10-25T08:01:23.703Z,12.30
2022-10-25T08:03:52.442Z,12.27
2022-10-25T08:06:21.330Z,12.30
2022-10-25T08:08:49.538Z,12.37
2022-10-25T08:11:17.765Z,11.83
2022-10-25T08:13:48.419Z,13.10
2022-10-25T08:16:17.740Z,11.73
2022-10-25T08:18:45.676Z,12.90
2022-10-25T08:21:13.722Z,12.17
2022-10-25T08:23:41.631Z,12.27
2022-10-25T08:26:09.545Z,12.37
2022-10-25T08:28:37.492Z,12.37
2022-10-25T08:31:05.628Z,12.23
2022-10-25T08:33:35.311Z,12.27
2022-10-25T08:36:03.956Z,12.07
2022-10-25T08:38:31.922Z,11.57
2022-10-25T08:41:06.625Z,11.60
2022-10-25T08:44:04.606Z,11.10
2022-10-25T08:46:37.716Z,11.30
2022-10-25T08:49:16.660Z,11.57
2022-10-25T08:51:48.152Z,12.23
2022-10-25T08:54:24.123Z,12.00
2022-10-25T08:57:14.085Z,10.87
2022-10-25T08:59:46.358Z,11.80
2022-10-25T09:02:20.301Z,10.33
2022-10-25T09:04:49.769Z,10.47
2022-10-25T09:07:47.548Z,10.90
2022-10-25T09:10:24.033Z,10.20
2022-10-25T09:13:00.618Z,10.27
2022-10-25T09:15:42.139Z,10.10
2022-10-25T09:18:16.512Z,11.77
2022-10-25T09:20:51.602Z,9.60
2022-10-25T09:23:28.697Z,9.40
2022-10-25T09:26:04.253Z,9.00
2022-10-25T09:28:50.434Z,9.43
2022-10-25T09:31:23.253Z,8.80
2022-10-25T09:33:57.721Z,8.80
2022-10-25T09:36:34.440Z,9.60
2022-10-25T09:39:06.754Z,9.37
2022-10-25T09:41:40.103Z,8.40
2022-10-25T09:44:13.687Z,8.50
2022-10-25T09:46:45.875Z,7.77
2022-10-25T09:49:23.870Z,7.10
2022-10-25T09:52:00.681Z,6.87
2022-10-25T09:54:36.110Z,7.07
2022-10-25T09:57:04.901Z,5.93
2022-10-25T09:59:32.813Z,6.43
2022-10-25T10:02:00.795Z,6.17
2022-10-25T10:04:35.778Z,5.90
2022-10-25T10:07:10.023Z,6.00
2022-10-25T10:09:44.820Z,5.90
2022-10-25T10:12:21.166Z,6.13
2022-10-25T10:14:54.667Z,5.80
2022-10-25T10:17:25.101Z,5.70
2022-10-25T10:20:15.411Z,5.93
2022-10-25T10:22:53.686Z,5.37
2022-10-25T10:25:25.207Z,5.27
2022-10-25T10:27:56.889Z,5.20
2022-10-25T10:30:28.728Z,5.27
2022-10-25T10:33:00.251Z,4.67
2022-10-25T10:35:31.932Z,4.67
2022-10-25T10:38:23.372Z,4.40
2022-10-25T10:40:52.757Z,4.47
2022-10-25T10:43:25.025Z,4.67
2022-10-25T10:45:53.453Z,4.37
2022-10-25T10:48:23.834Z,4.50
2022-10-25T10:50:52.733Z,4.47
2022-10-25T10:53:25.587Z,4.70
2022-10-25T10:55:55.316Z,4.50
2022-10-25T10:58:27.296Z,3.83
2022-10-25T11:00:58.404Z,3.77
2022-10-25T11:03:59.199Z,3.60
2022-10-25T11:06:30.616Z,3.70
2022-10-25T11:09:19.301Z,3.47
2022-10-25T11:12:06.006Z,3.70
2022-10-25T11:14:34.131Z,3.80
2022-10-25T11:17:04.816Z,3.33
2022-10-25T11:20:01.161Z,3.90
2022-10-25T11:22:43.437Z,4.10
2022-10-25T11:25:26.154Z,4.37
2022-10-25T11:28:05.302Z,4.63
2022-10-25T11:30:41.694Z,6.43
2022-10-25T11:33:39.490Z,4.43
2022-10-25T11:36:34.000Z,5.00
2022-10-25T11:39:13.222Z,4.03
2022-10-25T11:41:47.877Z,6.00
2022-10-25T11:44:31.667Z,5.87
2022-10-25T11:47:07.659Z,4.97
2022-10-25T11:49:48.625Z,4.90
2022-10-25T11:52:35.473Z,5.30
2022-10-25T11:55:18.841Z,4.63
2022-10-25T11:57:57.200Z,5.20
2022-10-25T12:00:37.855Z,4.67
2022-10-25T12:03:21.742Z,3.03
2022-10-25T12:05:56.324Z,2.93
2022-10-25T12:08:35.202Z,2.77
2022-10-25T12:11:06.999Z,3.07
2022-10-25T12:13:40.029Z,2.77
2022-10-25T12:16:13.249Z,2.73
2022-10-25T12:18:45.165Z,2.80
2022-10-25T12:21:18.859Z,3.00
2022-10-25T12:23:49.556Z,3.10
2022-10-25T12:26:23.639Z,2.80
2022-10-25T12:28:53.677Z,2.70
2022-10-25T12:31:25.050Z,3.43
2022-10-25T12:33:57.569Z,3.63
2022-10-25T12:36:31.733Z,3.10
2022-10-25T12:39:02.104Z,2.67
2022-10-25T12:41:35.351Z,2.43
2022-10-25T12:44:22.554Z,2.73
2022-10-25T12:47:13.017Z,2.97
2022-10-25T12:50:11.751Z,2.60
2022-10-25T12:52:42.958Z,3.13
2022-10-25T12:55:46.547Z,2.63
2022-10-25T12:58:46.970Z,2.50
2022-10-25T13:01:34.834Z,3.13
2022-10-25T13:04:30.935Z,3.70
2022-10-25T13:07:00.489Z,4.47
2022-10-25T13:09:33.123Z,2.87
2022-10-25T13:12:04.011Z,2.93
2022-10-25T13:14:34.937Z,2.40
2022-10-25T13:17:40.391Z,3.00
2022-10-25T13:20:49.778Z,3.20
2022-10-25T13:24:00.292Z,2.40
2022-10-25T13:26:32.009Z,2.83
2022-10-25T13:29:02.896Z,3.20
2022-10-25T13:31:49.175Z,2.53
2022-10-25T13:34:38.631Z,2.80
2022-10-25T13:37:39.718Z,2.70
2022-10-25T13:40:19.280Z,2.60
2022-10-25T13:42:49.722Z,2.83
2022-10-25T13:45:31.257Z,3.00
2022-10-25T13:48:15.193Z,3.47
2022-10-25T13:50:45.460Z,2.40
2022-10-25T13:53:21.531Z,2.57
2022-10-25T13:55:58.716Z,3.17
2022-10-25T13:58:46.569Z,3.00
2022-10-25T14:01:57.273Z,2.50
2022-10-25T14:04:36.613Z,2.53
2022-10-25T14:07:42.191Z,2.10
2022-10-25T14:10:30.038Z,2.50
2022-10-25T14:13:15.296Z,2.27
2022-10-25T14:15:49.996Z,2.90
2022-10-25T14:18:21.856Z,3.20
2022-10-25T14:20:53.452Z,2.40
2022-10-25T14:23:23.828Z,3.10
2022-10-25T14:25:56.204Z,2.70
2022-10-25T14:28:26.662Z,2.90
2022-10-25T14:30:56.993Z,3.50
2022-10-25T14:33:28.068Z,2.30
2022-10-25T14:35:58.656Z,2.27
2022-10-25T14:38:28.720Z,2.10
2022-10-25T14:41:00.443Z,2.60
2022-10-25T14:43:31.253Z,2.60
2022-10-25T14:46:01.986Z,2.50
2022-10-25T14:48:30.947Z,2.50
2022-10-25T14:51:04.128Z,2.47
2022-10-25T14:53:32.463Z,2.40
2022-10-25T14:56:04.825Z,2.30
2022-10-25T14:58:41.199Z,2.37
2022-10-25T15:01:12.499Z,2.27
2022-10-25T15:03:44.240Z,2.57
2022-10-25T15:06:14.003Z,2.67
2022-10-25T15:08:47.840Z,2.10
2022-10-25T15:11:21.233Z,2.73
2022-10-25T15:13:51.467Z,2.80
2022-10-25T15:16:36.942Z,3.03
2022-10-25T15:19:07.261Z,2.67
2022-10-25T15:21:42.769Z,2.50
2022-10-25T15:24:15.923Z,2.30
2022-10-25T15:26:57.541Z,2.50
2022-10-25T15:32:18.273Z,2.63
2022-10-25T15:34:48.803Z,2.90
2022-10-25T15:37:18.406Z,3.20
2022-10-25T15:39:47.926Z,2.70
2022-10-25T15:42:17.742Z,2.83
2022-10-25T15:44:45.850Z,2.73
2022-10-25T15:47:24.375Z,2.80
2022-10-25T15:49:54.188Z,2.90
2022-10-25T15:52:22.415Z,2.63
2022-10-25T15:54:50.436Z,3.27
2022-10-25T15:57:19.843Z,3.20
2022-10-25T15:59:47.868Z,3.20
2022-10-25T16:02:21.450Z,3.20
2022-10-25T16:04:50.496Z,2.97
2022-10-25T16:07:18.357Z,3.43
2022-10-25T16:09:46.302Z,3.30
2022-10-25T16:12:21.654Z,3.30
2022-10-25T16:14:52.608Z,3.50
2022-10-25T16:17:20.519Z,3.27
2022-10-25T16:19:48.382Z,3.23
2022-10-25T16:22:16.471Z,4.30
2022-10-25T16:24:44.413Z,4.30
2022-10-25T16:27:13.240Z,4.13
2022-10-25T16:29:42.673Z,5.10
2022-10-25T16:32:10.648Z,4.60
2022-10-25T16:34:42.296Z,4.40
2022-10-25T16:37:11.846Z,4.20
2022-10-25T16:39:40.108Z,4.00
2022-10-25T16:42:27.260Z,3.80
2022-10-25T16:44:56.672Z,4.20
2022-10-25T16:47:25.019Z,3.90
2022-10-25T16:49:53.192Z,4.03
2022-10-25T16:52:21.869Z,3.80
2022-10-25T16:54:49.816Z,3.97
2022-10-25T16:57:17.687Z,3.80
2022-10-25T16:59:45.572Z,4.07
2022-10-25T17:02:19.190Z,3.80
2022-10-25T17:04:48.444Z,4.30
2022-10-25T17:07:16.561Z,4.30
2022-10-25T17:09:44.851Z,5.53
2022-10-25T17:12:13.422Z,6.07
2022-10-25T17:14:41.417Z,6.07
2022-10-25T17:17:09.361Z,6.00
2022-10-25T17:19:38.787Z,6.10
2022-10-25T17:22:07.328Z,6.93
2022-10-25T17:24:37.571Z,6.70
2022-10-25T17:27:06.758Z,6.37
2022-10-25T17:29:34.878Z,6.07
2022-10-25T17:32:02.793Z,6.40
2022-10-25T17:34:32.015Z,5.70
2022-10-25T17:37:02.145Z,5.67
2022-10-25T17:39:30.439Z,5.87
2022-10-25T17:41:58.319Z,5.80
2022-10-25T17:44:26.388Z,6.07
2022-10-25T17:46:55.502Z,5.83
2022-10-25T17:49:25.242Z,5.80
2022-10-25T17:51:53.143Z,5.80
2022-10-25T17:54:22.710Z,5.80
2022-10-25T17:56:50.738Z,6.77
2022-10-25T17:59:18.767Z,6.07
2022-10-25T18:01:46.870Z,6.60
2022-10-25T18:04:14.920Z,6.70
2022-10-25T18:06:42.998Z,6.60
2022-10-25T18:09:10.926Z,6.67
2022-10-25T18:11:40.338Z,6.97
2022-10-25T18:14:08.492Z,7.20
2022-10-25T18:16:36.422Z,7.47
2022-10-25T18:19:06.123Z,7.23
2022-10-25T18:21:34.882Z,6.43
2022-10-25T18:24:04.857Z,6.93
2022-10-25T18:26:33.408Z,7.00
2022-10-25T18:29:02.866Z,6.50
2022-10-25T18:31:31.001Z,6.70
2022-10-25T18:34:03.310Z,7.17
2022-10-25T18:36:31.606Z,6.80
2022-10-25T18:38:59.514Z,6.70
2022-10-25T18:41:29.437Z,7.30
2022-10-25T18:43:58.226Z,6.53
2022-10-25T18:46:30.660Z,6.67
2022-10-25T18:48:58.612Z,6.80
2022-10-25T18:51:28.775Z,6.97
2022-10-25T18:53:57.579Z,7.03
2022-10-25T18:56:25.929Z,7.10
2022-10-25T18:58:56.640Z,7.10
2022-10-25T19:01:28.541Z,6.80
2022-10-25T19:03:57.530Z,7.40
2022-10-25T19:06:25.895Z,6.70
2022-10-25T19:08:54.415Z,7.30
2022-10-25T19:11:22.555Z,7.57
2022-10-25T19:13:54.765Z,7.20
2022-10-25T19:16:22.835Z,7.43
2022-10-25T19:18:52.131Z,8.63
2022-10-25T19:21:20.203Z,8.00
2022-10-25T19:23:48.649Z,7.83
2022-10-25T19:26:19.400Z,7.63
2022-10-25T19:28:48.049Z,7.30
2022-10-25T19:31:18.336Z,7.30
2022-10-25T19:33:46.939Z,7.03
2022-10-25T19:36:17.226Z,6.60
2022-10-25T19:38:46.003Z,7.17
2022-10-25T19:41:16.688Z,6.67
2022-10-25T19:43:44.693Z,6.87
2022-10-25T19:46:13.334Z,7.67
2022-10-25T19:48:41.471Z,7.50
2022-10-25T19:51:11.064Z,7.30
2022-10-25T19:53:40.909Z,8.03
2022-10-25T19:56:10.215Z,7.77
2022-10-25T19:58:38.270Z,8.03
2022-10-25T20:01:08.282Z,8.53
2022-10-25T20:03:37.639Z,8.40
2022-10-25T20:06:08.136Z,8.40
2022-10-25T20:08:38.233Z,8.13
2022-10-25T20:11:08.772Z,7.80
2022-10-25T20:13:36.833Z,7.97
2022-10-25T20:16:05.681Z,7.67
2022-10-25T20:18:35.567Z,8.07
2022-10-25T20:21:07.318Z,7.57
2022-10-25T20:23:35.782Z,7.57
2022-10-25T20:26:13.221Z,7.67
2022-10-25T20:28:41.261Z,7.80
2022-10-25T20:31:09.186Z,7.20
2022-10-25T20:33:37.187Z,7.50
2022-10-25T20:36:07.433Z,7.30
2022-10-25T20:38:36.818Z,7.87
2022-10-25T20:41:05.699Z,7.77
2022-10-25T20:43:35.611Z,8.17
2022-10-25T20:46:04.261Z,7.43
2022-10-25T20:48:32.720Z,8.20
2022-10-25T20:51:04.106Z,8.57
2022-10-25T20:53:35.649Z,7.97
2022-10-25T20:56:03.999Z,7.47
2022-10-25T20:58:31.952Z,8.20
2022-10-25T21:01:01.762Z,7.97
2022-10-25T21:03:31.400Z,8.97
2022-10-25T21:06:01.087Z,8.20
2022-10-25T21:08:28.929Z,8.30
2022-10-25T21:10:58.523Z,8.77
2022-10-25T21:13:27.746Z,8.33
2022-10-25T21:15:55.647Z,8.83
2022-10-25T21:18:27.703Z,8.70
2022-10-25T21:20:56.373Z,8.37
2022-10-25T21:23:24.345Z,8.97
2022-10-25T21:25:58.613Z,8.50
2022-10-25T21:28:27.320Z,7.67
2022-10-25T21:30:55.609Z,7.90
2022-10-25T21:33:24.954Z,7.80
2022-10-25T21:35:52.794Z,8.90
2022-10-25T21:38:21.014Z,8.03
2022-10-25T21:40:48.943Z,7.60
2022-10-25T21:43:16.840Z,8.27
2022-10-25T21:45:44.726Z,8.20
2022-10-25T21:48:12.825Z,8.30
2022-10-25T21:50:42.126Z,8.00
2022-10-25T21:53:10.111Z,8.30
2022-10-25T21:55:37.999Z,8.17
2022-10-25T21:58:05.987Z,7.67
2022-10-25T22:00:33.827Z,7.70
2022-10-25T22:03:01.914Z,8.40
2022-10-25T22:05:29.802Z,8.23
2022-10-25T22:07:59.096Z,8.87
2022-10-25T22:10:27.308Z,8.13
2022-10-25T22:12:57.341Z,8.33
2022-10-25T22:15:25.270Z,8.10
2022-10-25T22:17:53.137Z,8.17
2022-10-25T22:20:21.064Z,7.60
2022-10-25T22:22:49.432Z,8.07
2022-10-25T22:25:19.087Z,7.80
2022-10-25T22:27:46.975Z,8.00
2022-10-25T22:30:15.269Z,7.97
2022-10-25T22:32:43.163Z,7.20
2022-10-25T22:35:11.192Z,8.17
2022-10-25T22:37:39.047Z,8.40
2022-10-25T22:40:07.980Z,7.80
2022-10-25T22:42:37.186Z,7.77
2022-10-25T22:45:05.572Z,7.60
2022-10-25T22:47:33.540Z,7.87
2022-10-25T22:50:01.458Z,7.67
2022-10-25T22:52:29.326Z,7.57
2022-10-25T22:54:57.329Z,7.87
2022-10-25T22:57:25.183Z,8.00
2022-10-25T22:59:54.440Z,7.63
2022-10-25T23:02:22.492Z,7.93
2022-10-25T23:04:50.332Z,7.70
2022-10-25T23:07:18.259Z,7.37
2022-10-25T23:09:46.215Z,7.20
2022-10-25T23:12:14.244Z,7.10
2022-10-25T23:14:42.105Z,7.10
2022-10-25T23:17:11.485Z,6.93
2022-10-25T23:19:39.417Z,7.40
2022-10-25T23:22:07.289Z,7.30
2022-10-25T23:24:35.202Z,7.00
2022-10-25T23:27:03.069Z,7.67
2022-10-25T23:29:30.990Z,8.13
2022-10-25T23:31:58.970Z,7.63
2022-10-25T23:34:28.331Z,7.60
2022-10-25T23:36:56.317Z,7.33
2022-10-25T23:39:24.242Z,7.77
2022-10-25T23:41:56.576Z,7.90
2022-10-25T23:44:25.137Z,7.40
2022-10-25T23:46:53.041Z,7.90
2022-10-25T23:49:20.969Z,7.27
2022-10-25T23:51:50.347Z,7.50
2022-10-25T23:54:18.227Z,8.10
2022-10-25T23:56:46.118Z,7.33
2022-10-25T23:59:14.119Z,7.67
